createdAt,value
2019-03-10T00:00:37.581Z,10.00
2019-03-10T00:03:03.755Z,10.00
2019-03-10T00:05:29.723Z,10.00
2019-03-10T00:07:55.773Z,10.00
2019-03-10T00:10:21.826Z,10.10
2019-03-10T00:12:47.792Z,10.00
2019-03-10T00:15:13.750Z,10.00
2019-03-10T00:17:39.700Z,10.00
2019-03-10T00:20:06.543Z,10.00
2019-03-10T00:22:32.503Z,9.90
2019-03-10T00:24:58.446Z,10.00
2019-03-10T00:27:24.423Z,10.00
2019-03-10T00:29:50.359Z,10.00
2019-03-10T00:32:16.314Z,9.90
2019-03-10T00:34:42.272Z,9.90
2019-03-10T00:37:08.217Z,9.90
2019-03-10T00:39:41.848Z,9.90
2019-03-10T00:42:26.550Z,9.90
2019-03-10T00:45:11.354Z,9.90
2019-03-10T00:47:39.195Z,9.90
2019-03-10T00:50:19.519Z,9.90
2019-03-10T00:52:47.359Z,9.90
2019-03-10T00:55:13.311Z,9.90
2019-03-10T00:57:39.273Z,9.90
2019-03-10T01:00:07.115Z,10.00
2019-03-10T01:02:33.059Z,9.90
2019-03-10T01:04:59.019Z,10.00
2019-03-10T01:07:24.971Z,9.90
2019-03-10T01:09:50.927Z,9.90
2019-03-10T01:12:16.976Z,9.90
2019-03-10T01:14:42.929Z,9.80
2019-03-10T01:17:08.928Z,9.90
2019-03-10T01:19:35.836Z,10.00
2019-03-10T01:22:01.801Z,9.90
2019-03-10T01:24:27.923Z,9.60
2019-03-10T01:26:53.859Z,9.80
2019-03-10T01:29:19.803Z,9.80
2019-03-10T01:32:04.271Z,9.80
2019-03-10T01:34:50.999Z,9.80
2019-03-10T01:37:16.946Z,9.80
2019-03-10T01:39:42.882Z,9.70
2019-03-10T01:42:08.835Z,9.80
2019-03-10T01:44:34.903Z,9.70
2019-03-10T01:47:00.853Z,9.80
2019-03-10T01:49:26.793Z,9.90
2019-03-10T01:51:52.745Z,9.80
2019-03-10T01:54:18.727Z,9.80
2019-03-10T01:56:44.722Z,9.80
2019-03-10T01:59:10.658Z,9.70
2019-03-10T02:01:36.628Z,9.60
2019-03-10T02:04:02.622Z,9.70
2019-03-10T02:06:28.649Z,9.70
2019-03-10T02:08:54.597Z,9.70
2019-03-10T02:11:20.543Z,9.70
2019-03-10T02:13:46.509Z,9.60
2019-03-10T02:16:12.447Z,9.70
2019-03-10T02:18:38.394Z,9.60
2019-03-10T02:21:04.334Z,9.50
2019-03-10T02:23:30.311Z,9.50
2019-03-10T02:25:56.242Z,9.50
2019-03-10T02:28:22.187Z,9.40
2019-03-10T02:30:48.128Z,9.30
2019-03-10T02:33:14.079Z,9.30
2019-03-10T02:35:40.022Z,9.30
2019-03-10T02:38:06.041Z,9.30
2019-03-10T02:40:32.058Z,9.30
2019-03-10T02:42:58.007Z,9.40
2019-03-10T02:45:23.943Z,9.40
2019-03-10T02:47:49.890Z,9.60
2019-03-10T02:50:15.819Z,9.70
2019-03-10T02:52:41.771Z,9.70
2019-03-10T02:55:07.803Z,9.60
2019-03-10T02:57:33.792Z,9.60
2019-03-10T02:59:59.719Z,9.70
2019-03-10T03:02:25.663Z,9.60
2019-03-10T03:04:51.637Z,9.70
2019-03-10T03:07:37.563Z,9.90
2019-03-10T03:10:05.538Z,9.90
2019-03-10T03:12:31.605Z,10.00
2019-03-10T03:14:57.571Z,10.00
2019-03-10T03:17:23.517Z,10.00
2019-03-10T03:19:49.560Z,10.00
2019-03-10T03:22:15.499Z,10.10
2019-03-10T03:24:41.433Z,10.10
2019-03-10T03:27:07.442Z,10.10
2019-03-10T03:29:33.471Z,10.10
2019-03-10T03:31:59.476Z,10.00
2019-03-10T03:34:25.525Z,9.80
2019-03-10T03:36:51.552Z,9.40
2019-03-10T03:39:25.407Z,8.90
2019-03-10T03:41:51.342Z,8.50
2019-03-10T03:44:17.286Z,8.10
2019-03-10T03:46:43.235Z,7.80
2019-03-10T03:49:09.236Z,7.80
2019-03-10T03:51:35.258Z,7.70
2019-03-10T03:54:01.239Z,7.60
2019-03-10T03:56:27.268Z,7.70
2019-03-10T03:58:53.206Z,7.70
2019-03-10T04:01:21.060Z,7.80
2019-03-10T04:03:47.003Z,7.80
2019-03-10T04:06:12.965Z,7.70
2019-03-10T04:08:38.920Z,7.70
2019-03-10T04:11:04.879Z,7.60
2019-03-10T04:13:30.814Z,7.50
2019-03-10T04:15:56.771Z,7.40
2019-03-10T04:18:22.742Z,7.50
2019-03-10T04:20:48.800Z,7.50
2019-03-10T04:23:14.810Z,7.60
2019-03-10T04:25:40.752Z,7.60
2019-03-10T04:28:06.799Z,7.40
2019-03-10T04:30:32.736Z,7.30
2019-03-10T04:32:58.687Z,7.30
2019-03-10T04:35:24.620Z,7.50
2019-03-10T04:37:50.574Z,7.60
2019-03-10T04:40:16.494Z,7.60
2019-03-10T04:42:42.459Z,7.70
2019-03-10T04:45:08.491Z,7.60
2019-03-10T04:47:34.418Z,7.60
2019-03-10T04:50:00.358Z,7.60
2019-03-10T04:52:26.307Z,7.50
2019-03-10T04:54:57.143Z,7.50
2019-03-10T04:57:23.378Z,7.50
2019-03-10T05:00:09.214Z,7.50
2019-03-10T05:02:35.155Z,7.60
2019-03-10T05:05:01.103Z,7.50
2019-03-10T05:07:27.042Z,7.50
2019-03-10T05:09:52.974Z,7.60
2019-03-10T05:12:18.931Z,7.50
2019-03-10T05:14:44.866Z,7.50
2019-03-10T05:17:10.806Z,7.40
2019-03-10T05:19:36.735Z,7.40
2019-03-10T05:22:02.682Z,7.50
2019-03-10T05:24:28.622Z,7.50
2019-03-10T05:26:54.572Z,7.50
2019-03-10T05:29:20.510Z,7.60
2019-03-10T05:31:46.442Z,7.60
2019-03-10T05:34:12.404Z,7.60
2019-03-10T05:36:38.375Z,7.60
2019-03-10T05:39:04.929Z,7.50
2019-03-10T05:41:30.850Z,7.60
2019-03-10T05:43:58.739Z,7.60
2019-03-10T05:46:24.624Z,7.70
2019-03-10T05:48:50.573Z,7.90
2019-03-10T05:51:16.508Z,8.00
2019-03-10T05:53:42.459Z,8.20
2019-03-10T05:56:08.512Z,8.10
2019-03-10T05:58:35.292Z,8.20
2019-03-10T06:01:01.482Z,8.20
2019-03-10T06:03:27.410Z,8.30
2019-03-10T06:05:53.366Z,8.20
2019-03-10T06:08:19.294Z,8.10
2019-03-10T06:10:45.235Z,8.00
2019-03-10T06:13:11.196Z,8.00
2019-03-10T06:15:37.134Z,7.90
2019-03-10T06:18:13.010Z,7.80
2019-03-10T06:20:30.973Z,7.80
2019-03-10T06:22:56.927Z,7.70
2019-03-10T06:25:22.884Z,7.70
2019-03-10T06:27:48.815Z,7.80
2019-03-10T06:30:14.762Z,7.70
2019-03-10T06:32:40.762Z,7.70
2019-03-10T06:35:06.754Z,7.40
2019-03-10T06:37:32.703Z,7.60
2019-03-10T06:39:58.629Z,7.50
2019-03-10T06:42:24.582Z,7.50
2019-03-10T06:44:50.537Z,7.60
2019-03-10T06:47:16.473Z,7.60
2019-03-10T06:49:42.406Z,7.50
2019-03-10T06:52:08.350Z,7.40
2019-03-10T06:54:34.282Z,7.40
2019-03-10T06:57:00.355Z,7.40
2019-03-10T06:59:26.291Z,7.40
2019-03-10T07:01:52.235Z,7.40
2019-03-10T07:04:18.186Z,7.40
2019-03-10T07:06:44.127Z,7.40
2019-03-10T07:09:10.071Z,7.40
2019-03-10T07:11:36.022Z,7.50
2019-03-10T07:14:02.118Z,7.50
2019-03-10T07:16:28.126Z,7.50
2019-03-10T07:18:54.151Z,7.60
2019-03-10T07:21:20.217Z,7.70
2019-03-10T07:23:46.253Z,7.80
2019-03-10T07:26:12.295Z,7.80
2019-03-10T07:28:43.015Z,7.90
2019-03-10T07:31:17.018Z,7.90
2019-03-10T07:34:01.543Z,8.00
2019-03-10T07:36:35.307Z,8.10
2019-03-10T07:39:03.271Z,8.30
2019-03-10T07:41:49.415Z,8.40
2019-03-10T07:44:19.902Z,8.60
2019-03-10T07:46:47.750Z,8.70
2019-03-10T07:49:18.502Z,8.80
2019-03-10T07:51:49.538Z,9.00
2019-03-10T07:54:20.305Z,9.10
2019-03-10T07:56:50.797Z,9.10
2019-03-10T07:59:21.766Z,9.20
2019-03-10T08:01:49.797Z,9.40
2019-03-10T08:04:26.694Z,9.60
2019-03-10T08:07:00.798Z,9.70
2019-03-10T08:09:40.631Z,9.80
2019-03-10T08:12:20.554Z,9.90
2019-03-10T08:14:48.522Z,10.00
2019-03-10T08:17:16.363Z,10.10
2019-03-10T08:19:53.200Z,10.20
2019-03-10T08:22:36.364Z,10.30
2019-03-10T08:25:12.206Z,10.50
2019-03-10T08:27:48.990Z,10.60
2019-03-10T08:30:32.200Z,10.80
2019-03-10T08:33:02.932Z,10.80
2019-03-10T08:35:39.988Z,10.90
2019-03-10T08:38:07.816Z,10.90
2019-03-10T08:40:35.662Z,10.90
2019-03-10T08:43:09.491Z,10.80
2019-03-10T08:45:49.732Z,10.90
2019-03-10T08:48:20.694Z,10.90
2019-03-10T08:50:48.656Z,11.00
2019-03-10T08:53:16.519Z,11.00
2019-03-10T08:55:59.351Z,11.00
2019-03-10T08:58:27.207Z,11.10
2019-03-10T09:01:03.867Z,11.00
2019-03-10T09:03:31.739Z,11.00
2019-03-10T09:06:02.719Z,10.90
2019-03-10T09:08:30.578Z,10.80
2019-03-10T09:10:58.416Z,10.80
2019-03-10T09:13:26.277Z,10.70
2019-03-10T09:16:09.086Z,10.70
2019-03-10T09:18:45.891Z,10.70
2019-03-10T09:21:13.731Z,10.70
2019-03-10T09:23:50.507Z,10.70
2019-03-10T09:26:30.635Z,10.70
2019-03-10T09:29:13.478Z,10.50
2019-03-10T09:31:53.531Z,10.40
2019-03-10T09:34:21.386Z,10.40
2019-03-10T09:37:05.930Z,10.30
2019-03-10T09:39:40.007Z,10.20
2019-03-10T09:42:19.999Z,10.20
2019-03-10T09:44:47.843Z,10.10
2019-03-10T09:47:21.326Z,10.00
2019-03-10T09:49:55.093Z,9.90
2019-03-10T09:52:31.687Z,9.90
2019-03-10T09:55:05.234Z,9.90
2019-03-10T09:57:51.478Z,9.80
2019-03-10T10:00:31.263Z,9.70
2019-03-10T10:03:05.220Z,9.70
2019-03-10T10:05:50.560Z,9.50
2019-03-10T10:08:41.500Z,9.60
2019-03-10T10:11:18.443Z,8.60
2019-03-10T10:13:46.376Z,9.60
2019-03-10T10:16:20.300Z,9.60
2019-03-10T10:19:03.446Z,9.60
2019-03-10T10:21:34.491Z,9.50
2019-03-10T10:24:02.335Z,9.50
2019-03-10T10:26:33.131Z,9.40
2019-03-10T10:29:00.965Z,9.40
2019-03-10T10:31:45.408Z,9.30
2019-03-10T10:34:19.425Z,9.30
2019-03-10T10:36:47.277Z,9.30
2019-03-10T10:39:31.715Z,9.30
2019-03-10T10:41:59.564Z,9.30
2019-03-10T10:44:30.075Z,9.30
2019-03-10T10:46:58.008Z,9.30
2019-03-10T10:49:25.847Z,9.20
2019-03-10T10:51:56.338Z,9.30
2019-03-10T10:54:24.200Z,9.20
2019-03-10T10:57:10.148Z,9.30
2019-03-10T10:59:56.130Z,9.40
2019-03-10T11:02:52.930Z,9.40
2019-03-10T11:05:20.774Z,8.80
2019-03-10T11:07:54.762Z,9.40
2019-03-10T11:10:28.271Z,9.50
2019-03-10T11:13:11.122Z,9.50
2019-03-10T11:15:55.572Z,9.60
2019-03-10T11:18:23.427Z,9.60
2019-03-10T11:20:56.230Z,9.50
2019-03-10T11:23:24.015Z,9.40
2019-03-10T11:25:51.854Z,9.30
2019-03-10T11:28:22.342Z,9.40
2019-03-10T11:30:59.124Z,9.50
2019-03-10T11:33:27.781Z,9.50
2019-03-10T11:35:55.710Z,9.60
2019-03-10T11:38:23.581Z,9.60
2019-03-10T11:41:06.697Z,9.60
2019-03-10T11:43:40.263Z,9.70
2019-03-10T11:46:12.538Z,9.80
2019-03-10T11:48:40.381Z,9.90
2019-03-10T11:51:25.027Z,10.00
2019-03-10T11:54:02.033Z,10.10
2019-03-10T11:56:32.879Z,10.10
2019-03-10T11:59:09.565Z,10.30
2019-03-10T12:01:40.050Z,10.40
2019-03-10T12:04:10.309Z,10.50
2019-03-10T12:06:37.750Z,10.60
2019-03-10T12:09:06.430Z,10.60
2019-03-10T12:11:32.365Z,10.60
2019-03-10T12:13:58.358Z,10.60
2019-03-10T12:16:24.404Z,10.70
2019-03-10T12:18:50.352Z,10.70
2019-03-10T12:21:16.315Z,10.80
2019-03-10T12:23:42.267Z,11.00
2019-03-10T12:26:08.214Z,11.20
2019-03-10T12:28:34.165Z,11.40
2019-03-10T12:31:00.206Z,11.40
2019-03-10T12:33:26.165Z,11.40
2019-03-10T12:35:52.098Z,11.40
2019-03-10T12:38:18.038Z,11.30
2019-03-10T12:40:43.975Z,11.30
2019-03-10T12:43:09.941Z,11.20
2019-03-10T12:45:35.870Z,11.10
2019-03-10T12:48:01.879Z,11.30
2019-03-10T12:50:27.936Z,11.40
2019-03-10T12:52:53.864Z,11.60
2019-03-10T12:55:19.805Z,12.00
2019-03-10T12:57:45.760Z,11.80
2019-03-10T13:00:13.562Z,11.90
2019-03-10T13:02:39.866Z,11.90
2019-03-10T13:05:06.714Z,11.80
2019-03-10T13:07:32.651Z,11.90
2019-03-10T13:09:58.574Z,11.90
2019-03-10T13:12:24.562Z,11.90
2019-03-10T13:14:59.072Z,12.00
2019-03-10T13:17:18.390Z,12.00
2019-03-10T13:19:44.411Z,12.10
2019-03-10T13:22:10.346Z,12.20
2019-03-10T13:24:37.422Z,12.50
2019-03-10T13:27:03.355Z,12.70
2019-03-10T13:29:29.657Z,12.90
2019-03-10T13:31:55.858Z,12.70
2019-03-10T13:34:22.895Z,12.50
2019-03-10T13:36:49.205Z,12.50
2019-03-10T13:39:15.391Z,12.50
2019-03-10T13:41:41.475Z,12.40
2019-03-10T13:44:07.569Z,12.60
2019-03-10T13:46:33.663Z,12.70
2019-03-10T13:48:59.796Z,12.90
2019-03-10T13:51:25.930Z,13.00
2019-03-10T13:53:52.073Z,13.20
2019-03-10T13:56:18.138Z,13.20
2019-03-10T13:58:45.813Z,13.10
2019-03-10T14:01:11.858Z,13.10
2019-03-10T14:03:38.263Z,13.30
2019-03-10T14:06:04.383Z,13.40
2019-03-10T14:08:30.319Z,13.60
2019-03-10T14:10:56.251Z,13.80
2019-03-10T14:13:22.368Z,14.10
2019-03-10T14:15:48.615Z,13.90
2019-03-10T14:18:14.550Z,14.40
2019-03-10T14:21:02.283Z,14.50
2019-03-10T14:23:28.239Z,14.80
2019-03-10T14:25:54.177Z,14.90
2019-03-10T14:28:22.077Z,14.30
2019-03-10T14:30:47.967Z,14.00
2019-03-10T14:33:14.031Z,13.90
2019-03-10T14:35:40.212Z,13.60
2019-03-10T14:38:06.290Z,13.70
2019-03-10T14:40:32.459Z,13.70
2019-03-10T14:42:58.760Z,14.10
2019-03-10T14:45:24.929Z,14.10
2019-03-10T14:47:51.178Z,14.00
2019-03-10T14:50:17.638Z,13.60
2019-03-10T14:52:43.639Z,13.30
2019-03-10T14:55:11.470Z,13.60
2019-03-10T14:57:37.433Z,13.40
2019-03-10T15:00:08.009Z,13.00
2019-03-10T15:02:33.947Z,12.90
2019-03-10T15:05:00.026Z,12.70
2019-03-10T15:07:25.963Z,12.50
2019-03-10T15:09:51.921Z,12.30
2019-03-10T15:12:17.895Z,12.30
2019-03-10T15:14:44.101Z,12.60
2019-03-10T15:17:10.246Z,13.40
2019-03-10T15:19:36.210Z,14.10
2019-03-10T15:22:02.298Z,14.60
2019-03-10T15:24:28.276Z,14.50
2019-03-10T15:26:54.326Z,14.70
2019-03-10T15:29:20.279Z,14.20
2019-03-10T15:31:46.211Z,13.40
2019-03-10T15:34:12.152Z,12.90
2019-03-10T15:36:38.094Z,12.80
2019-03-10T15:39:04.640Z,13.30
2019-03-10T15:41:30.704Z,13.30
2019-03-10T15:43:56.640Z,14.00
2019-03-10T15:46:22.587Z,14.70
2019-03-10T15:48:48.522Z,14.60
2019-03-10T15:51:14.542Z,14.10
2019-03-10T15:53:40.475Z,13.50
2019-03-10T15:56:06.442Z,13.80
2019-03-10T15:58:32.400Z,14.40
2019-03-10T16:00:58.343Z,14.60
2019-03-10T16:03:24.279Z,15.00
2019-03-10T16:05:50.230Z,15.10
2019-03-10T16:08:16.183Z,15.00
2019-03-10T16:10:42.127Z,14.80
2019-03-10T16:13:08.076Z,14.90
2019-03-10T16:15:34.171Z,14.90
2019-03-10T16:18:00.236Z,14.40
2019-03-10T16:20:26.168Z,14.20
2019-03-10T16:22:52.259Z,14.10
2019-03-10T16:25:18.203Z,13.40
2019-03-10T16:27:44.207Z,12.90
2019-03-10T16:30:12.063Z,12.50
2019-03-10T16:32:38.122Z,12.30
2019-03-10T16:35:05.199Z,12.30
2019-03-10T16:37:31.138Z,12.30
2019-03-10T16:39:57.070Z,12.20
2019-03-10T16:42:23.021Z,12.00
2019-03-10T16:44:48.942Z,11.90
2019-03-10T16:47:14.902Z,11.70
2019-03-10T16:49:40.834Z,11.70
2019-03-10T16:52:06.758Z,11.60
2019-03-10T16:54:32.709Z,11.60
2019-03-10T16:56:58.657Z,11.50
2019-03-10T16:59:24.583Z,11.40
2019-03-10T17:01:50.520Z,11.30
2019-03-10T17:04:16.458Z,11.40
2019-03-10T17:06:42.415Z,11.10
2019-03-10T17:09:10.264Z,11.00
2019-03-10T17:11:38.546Z,10.90
2019-03-10T17:14:04.074Z,10.90
2019-03-10T17:16:30.024Z,10.90
2019-03-10T17:18:55.958Z,10.90
2019-03-10T17:21:21.902Z,10.80
2019-03-10T17:23:47.859Z,10.60
2019-03-10T17:26:13.915Z,10.20
2019-03-10T17:28:39.871Z,9.80
2019-03-10T17:31:05.819Z,9.60
2019-03-10T17:33:31.778Z,9.60
2019-03-10T17:35:57.725Z,9.60
2019-03-10T17:38:43.552Z,9.60
2019-03-10T17:41:09.613Z,9.60
2019-03-10T17:43:35.548Z,9.60
2019-03-10T17:46:01.514Z,9.70
2019-03-10T17:48:27.454Z,9.70
2019-03-10T17:50:55.660Z,9.70
2019-03-10T17:53:21.595Z,9.70
2019-03-10T17:55:47.548Z,9.80
2019-03-10T17:58:13.503Z,9.90
2019-03-10T18:00:39.750Z,9.90
2019-03-10T18:03:05.698Z,10.00
2019-03-10T18:05:31.631Z,10.00
2019-03-10T18:07:57.606Z,10.00
2019-03-10T18:10:23.528Z,10.10
2019-03-10T18:12:49.439Z,10.00
2019-03-10T18:15:15.983Z,9.80
2019-03-10T18:17:42.141Z,9.70
2019-03-10T18:20:12.788Z,9.60
2019-03-10T18:22:41.274Z,9.50
2019-03-10T18:25:07.671Z,9.30
2019-03-10T18:27:33.602Z,9.30
2019-03-10T18:29:59.554Z,9.20
2019-03-10T18:32:25.501Z,9.20
2019-03-10T18:34:51.459Z,9.20
2019-03-10T18:37:17.430Z,9.20
2019-03-10T18:39:43.369Z,9.20
2019-03-10T18:42:09.317Z,9.30
2019-03-10T18:44:35.265Z,9.20
2019-03-10T18:47:01.303Z,9.20
2019-03-10T18:49:27.247Z,9.20
2019-03-10T18:51:53.209Z,9.10
2019-03-10T18:54:19.315Z,9.20
2019-03-10T18:56:45.330Z,9.20
2019-03-10T18:59:11.280Z,9.10
2019-03-10T19:01:37.277Z,9.10
2019-03-10T19:04:03.317Z,9.20
2019-03-10T19:06:29.243Z,9.10
2019-03-10T19:08:55.202Z,9.10
2019-03-10T19:11:21.140Z,9.10
2019-03-10T19:13:47.085Z,9.10
2019-03-10T19:16:13.115Z,9.10
2019-03-10T19:18:39.072Z,9.00
2019-03-10T19:21:05.018Z,9.00
2019-03-10T19:23:30.982Z,8.90
2019-03-10T19:25:56.918Z,9.00
2019-03-10T19:28:22.856Z,8.90
2019-03-10T19:30:48.806Z,8.90
2019-03-10T19:33:14.748Z,8.80
2019-03-10T19:35:40.719Z,8.70
2019-03-10T19:38:06.750Z,8.70
2019-03-10T19:40:32.738Z,8.70
2019-03-10T19:42:58.674Z,8.60
2019-03-10T19:45:24.614Z,8.50
2019-03-10T19:47:50.563Z,8.50
2019-03-10T19:50:23.241Z,8.50
2019-03-10T19:52:49.197Z,8.50
2019-03-10T19:55:15.235Z,8.50
2019-03-10T19:57:41.174Z,8.50
2019-03-10T20:00:12.086Z,8.40
2019-03-10T20:02:38.018Z,8.40
2019-03-10T20:05:05.262Z,8.40
2019-03-10T20:07:31.195Z,8.40
2019-03-10T20:09:57.149Z,8.50
2019-03-10T20:12:23.082Z,8.40
2019-03-10T20:14:49.023Z,8.50
2019-03-10T20:17:15.038Z,8.50
2019-03-10T20:19:41.030Z,8.40
2019-03-10T20:22:06.983Z,8.40
2019-03-10T20:24:32.913Z,8.40
2019-03-10T20:26:58.882Z,8.40
2019-03-10T20:29:27.616Z,8.50
2019-03-10T20:31:53.585Z,8.40
2019-03-10T20:34:19.525Z,8.30
2019-03-10T20:36:45.568Z,8.30
2019-03-10T20:39:11.598Z,8.30
2019-03-10T20:41:37.566Z,8.30
2019-03-10T20:44:03.619Z,8.30
2019-03-10T20:46:29.587Z,8.20
2019-03-10T20:48:55.527Z,8.20
2019-03-10T20:51:21.462Z,8.20
2019-03-10T20:53:47.522Z,8.30
2019-03-10T20:56:13.459Z,8.30
2019-03-10T20:58:39.414Z,8.30
2019-03-10T21:01:05.346Z,8.20
2019-03-10T21:03:31.333Z,8.20
2019-03-10T21:05:57.279Z,8.20
2019-03-10T21:08:23.321Z,8.20
2019-03-10T21:10:49.282Z,8.10
2019-03-10T21:13:15.248Z,8.10
2019-03-10T21:15:41.323Z,8.20
2019-03-10T21:18:07.263Z,8.20
2019-03-10T21:20:33.205Z,8.20
2019-03-10T21:22:59.151Z,8.30
2019-03-10T21:25:25.827Z,8.30
2019-03-10T21:27:51.866Z,8.30
2019-03-10T21:30:19.023Z,8.20
2019-03-10T21:32:44.987Z,8.20
2019-03-10T21:35:17.529Z,8.20
2019-03-10T21:37:39.275Z,8.00
2019-03-10T21:40:12.545Z,7.70
2019-03-10T21:42:38.511Z,7.50
2019-03-10T21:45:05.557Z,7.10
2019-03-10T21:47:51.383Z,6.80
2019-03-10T21:50:17.426Z,7.20
2019-03-10T21:52:43.383Z,6.30
2019-03-10T21:55:10.217Z,6.00
2019-03-10T21:57:37.131Z,5.80
2019-03-10T22:00:07.474Z,5.70
2019-03-10T22:02:33.428Z,5.40
2019-03-10T22:04:59.375Z,5.10
2019-03-10T22:07:25.330Z,4.90
2019-03-10T22:09:51.283Z,4.70
2019-03-10T22:12:17.240Z,4.60
2019-03-10T22:14:43.175Z,4.50
2019-03-10T22:17:09.126Z,4.50
2019-03-10T22:19:35.096Z,4.50
2019-03-10T22:22:21.020Z,4.50
2019-03-10T22:24:46.987Z,3.90
2019-03-10T22:27:12.947Z,4.60
2019-03-10T22:29:38.908Z,4.50
2019-03-10T22:32:04.869Z,4.60
2019-03-10T22:34:30.904Z,4.50
2019-03-10T22:36:56.934Z,4.50
2019-03-10T22:39:22.879Z,4.50
2019-03-10T22:41:48.830Z,4.50
2019-03-10T22:44:34.656Z,4.50
2019-03-10T22:47:00.614Z,5.70
2019-03-10T22:49:26.564Z,4.60
2019-03-10T22:51:52.490Z,4.60
2019-03-10T22:54:18.446Z,4.60
2019-03-10T22:56:44.395Z,4.70
2019-03-10T22:59:10.417Z,4.60
2019-03-10T23:01:36.424Z,4.70
2019-03-10T23:04:02.462Z,4.70
2019-03-10T23:06:28.411Z,4.70
2019-03-10T23:08:54.321Z,4.70
2019-03-10T23:11:20.276Z,4.70
2019-03-10T23:13:46.211Z,4.60
2019-03-10T23:16:12.158Z,4.60
2019-03-10T23:18:38.106Z,4.60
2019-03-10T23:21:04.053Z,4.60
2019-03-10T23:23:29.994Z,4.60
2019-03-10T23:25:55.922Z,4.50
2019-03-10T23:28:21.878Z,4.50
2019-03-10T23:30:47.807Z,4.40
2019-03-10T23:33:13.773Z,4.40
2019-03-10T23:35:39.712Z,4.30
2019-03-10T23:38:05.651Z,4.40
2019-03-10T23:40:31.595Z,4.40
2019-03-10T23:42:57.544Z,4.30
2019-03-10T23:45:23.494Z,4.40
2019-03-10T23:47:49.458Z,4.40
2019-03-10T23:50:16.117Z,4.30
2019-03-10T23:52:42.038Z,4.30
2019-03-10T23:55:08.787Z,4.30
2019-03-10T23:57:34.714Z,4.30
